Wittman Regional Airport
KOSH : now visible

Airfield :











YOU CAN JOIN US ON...

 
LOGIN :

Register | Disclaimer

   EN    FR    IT 

 









Legend :    VFR   Marginal VFR   IFR   Intensive IFR   Very Intensive IFR
Visi :
Ceiling :
>= 8 km
>= 3000ft
5 to 8 km
1000 to 3000 ft
1500m to 5 km
500 to 1000 ft
800 to 1500m
200 to 500 ft
< 800m
< 200 ft
Symbols :   Thunderstorms  Fog  Heavy snow  Heavy precipitations  Wind > 20 kt






- Airport Elevation : 808 ft
- IATA code : OSH


KOSH - Wittman Regional

CURRENT METAR :
  • 211753Z 36012KT 2 1/2SM R36/6000VP6000FT -RA BR SCT007 BKN012 OVC018 08/07 A2992 RMK AO2 RAB25E33B36 SLP132 P0000 60015 T00830072 10106 20083 52022

EXPIRED METARs :
  • 211743Z 34011G17KT 1 1/2SM R36/4500VP6000FT -RA BR BKN007 OVC013 08/08 A2991 RMK AO2 RAB25E33B36 P0000 T00830078
  • 211734Z 34007KT 2 1/2SM R36/4500VP6000FT BR SCT008 OVC013 09/08 A2991 RMK AO2 VIS 1V5 RAB25E33 P0000 T00890078
  • 211724Z 36012KT 6SM BR BKN013 BKN020 OVC026 09/07 A2991 RMK AO2 T00890072
  • 211653Z 35012KT 10SM BKN017 BKN023 OVC029 09/07 A2990 RMK AO2 RAB14E24 SLP124 P0000 T00890072
  • 211606Z 01013KT 10SM BKN015 OVC026 08/07 A2988 RMK AO2 T00830067
  • 211553Z 36012G21KT 10SM OVC013 08/07 A2988 RMK AO2 RAE52 SLP116 P0004 T00830072
  • 211538Z 01014KT 10SM -RA FEW007 OVC011 08/07 A2987 RMK AO2 P0004 T00830072
  • 211519Z 36014KT 2SM RA BR BKN009 OVC014 08/08 A2986 RMK AO2 P0004 T00830078
  • 211509Z 36012KT 4SM -RA BR OVC010 09/08 A2986 RMK AO2 CIG 006V014 P0002 T00890078

Expired Forecast.
KZAU FIR / North America



MET'MAP, your aeronautical weather chart ! - Copyright ORBIFLY December 2007 - Disclaimer

ORBIFLY MET'MAP TEAM :

Programming & Development : Alexandra Zaïnal
Concept & original design : Baudouin d'Aumeries
Assistance for programming : Marc-Olivier Méhu
Technical & hardware support : Manuel Goepfert

Contact : metmap@orbifly.com




SOURCES & CREDITS :

   NOAA       Earth
Advisory